Waitakeres Weather Go to January February March April May June
December Summaries Go to July August September October November December
Details 2007 2008 2009 2010 2011 2012 2013 2014 2015 2016
Highest Temperature 25.0C 24.1C 24.9C 27.4C 23.4C 26.3C 27.2C 26.4C 25.6C 24.8C
Lowest Temperature 11.2C 11.8C 7.8C 10.6C 10.4C 8.6C 9.6C 7.0C 9.0C 8.8C
Average Temperature 17.9C 17.5C 16.6C 17.6C 16.6C 17.5C 17.0C 16.8C 16.5C 16.0C
Highest Pressure 1025.0 hPa 1024.0 hPa 1027.0 hPa 1023.5 hPa 1032.0 hPa 1025.8 hPa 1022.8 hPa 1027.2 hPa 1029.8 hPa 1023.0 hPa
Lowest Pressure 1009.0 hPa 1000.0 hPa 1009.0 hPa 1006.6 hPa 1000.6 hPa 1002.2 hPa 1002.8 hPa 1004.4 hPa 1002.8 hPa 1002.6 hPa
Total Rain 74.5 mm 140.4 mm 90.7 mm 131.4 mm 156.6 mm 121.4 mm 112.0 mm 127.2 mm 64.2 mm 45.4 mm
Most Rain in 24 hrs 18.4 mm 40.0 mm 60.3 mm 36.0 mm 30.8 mm 43.0 mm 35.8 mm 55.2 mm 26.6 mm 12.4 mm
Heaviest Rain       36.6 mm/hr 43.4 mm/hr 576.0 mm/hr 110.8 mm/hr 79.0 mm/hr 115.2 mm/hr 56.8 mm/hr
Number of Rain Days 17 days 17 days 10 days 15 days 18 days 21 days 17 days 19 days 13 days 16 days
Highest Gust       45.1 km/hr 25.7 km/hr 30.6 km/hr 20.9 km/hr 33.8 km/hr 25.7 km/hr 22.5 km/hr
Highest Average Wind       10.4 km/hr 8.6 km/hr 6.4 km/hr 6.4 km/hr 9.7 km/hr 6.4 km/hr 6.4 km/hr
Highest Windrun       100.3 km 113.0 km 98.4 km 79.9 km 133.4 km 48.2 km 45.4 km
Back to Current Weather Go To Rainfall Data
Tabled Data - scroll down for earlier years 2016 Temperature Pressure Rain Wind
Maximum Minimum Average Maximum Minimum Day Total Maximum Rain Rate High Gust Highest Av Run
C C C hPa hPa mm mm/hr time km/h km/h km
01/12/2016 22.4C 10.1C 15.7C 1015.4 hPa 1012.9 hPa 0.2 mm 0.0 mm/hr 00:00 hrs 12.9 km/hr 1.6 km/hr 4.6 km
02/12/2016 21.7C 11.6C 15.6C 1014.7 hPa 1011.9 hPa 0.0 mm 0.0 mm/hr 00:00 hrs 14.5 km/hr 1.6 km/hr 7.3 km
03/12/2016 21.4C 10.8C 15.0C 1016.8 hPa 1013.4 hPa 0.0 mm 0.0 mm/hr 00:00 hrs 11.3 km/hr 1.6 km/hr 4.9 km
04/12/2016 21.0C 9.5C 15.2C 1018.2 hPa 1016.2 hPa 0.0 mm 0.0 mm/hr 00:00 hrs 9.7 km/hr 1.6 km/hr 6.4 km
05/12/2016 23.7C 11.9C 16.9C 1020.9 hPa 1017.6 hPa 0.0 mm 0.0 mm/hr 00:00 hrs 9.7 km/hr 1.6 km/hr 1.8 km
06/12/2016 23.8C 12.7C 17.7C 1021.9 hPa 1018.7 hPa 0.4 mm 1.4 mm/hr 16:37 hrs 11.3 km/hr 3.2 km/hr 3.8 km
07/12/2016 21.6C 11.6C 17.1C 1019.9 hPa 1012.6 hPa 0.0 mm 0.0 mm/hr 00:00 hrs 14.5 km/hr 4.8 km/hr 23.8 km
08/12/2016 18.5C 14.3C 16.2C 1012.7 hPa 1008.4 hPa 10.6 mm 7.8 mm/hr 06:21 hrs 12.9 km/hr 1.6 km/hr 3.5 km
09/12/2016 23.6C 15.1C 18.7C 1012.9 hPa 1009.5 hPa 0.0 mm 0.0 mm/hr 00:00 hrs 14.5 km/hr 3.2 km/hr 6.5 km
10/12/2016 20.6C 13.9C 17.4C 1011.6 hPa 1006.6 hPa 3.6 mm 5.2 mm/hr 13:59 hrs 14.5 km/hr 4.8 km/hr 7.2 km
11/12/2016 19.9C 11.7C 15.4C 1014.4 hPa 1008.0 hPa 1.0 mm 8.0 mm/hr 06:49 hrs 22.5 km/hr 6.4 km/hr 45.4 km
12/12/2016 20.4C 11.9C 15.1C 1015.4 hPa 1012.4 hPa 5.8 mm 56.8 mm/hr 07:47 hrs 19.3 km/hr 4.8 km/hr 43.5 km
13/12/2016 19.3C 10.6C 14.7C 1018.4 hPa 1014.9 hPa 0.2 mm 0.0 mm/hr 00:00 hrs 20.9 km/hr 3.2 km/hr 19.2 km
14/12/2016 16.9C 11.6C 14.9C 1017.9 hPa 1015.3 hPa 0.2 mm 0.0 mm/hr 00:00 hrs 0.0 km/hr 0.0 km/hr 0.0 km
15/12/2016 20.6C 13.3C 16.9C 1015.9 hPa 1011.6 hPa 1.6 mm 1.2 mm/hr 19:04 hrs 19.3 km/hr 3.2 km/hr 20.9 km
16/12/2016 20.3C 12.1C 15.5C 1020.9 hPa 1014.7 hPa 0.2 mm 0.0 mm/hr 00:00 hrs 17.7 km/hr 3.2 km/hr 26.1 km
17/12/2016 21.8C 10.9C 16.0C 1021.9 hPa 1020.2 hPa 0.0 mm 0.0 mm/hr 00:00 hrs 17.7 km/hr 1.6 km/hr 8.7 km
18/12/2016 22.3C 10.2C 16.0C 1021.5 hPa 1016.9 hPa 0.0 mm 0.0 mm/hr 00:00 hrs 9.7 km/hr 3.2 km/hr 3.4 km
19/12/2016 19.7C 11.4C 15.6C 1018.9 hPa 1015.0 hPa 4.0 mm 20.2 mm/hr 14:28 hrs 20.9 km/hr 1.6 km/hr 8.9 km
20/12/2016 21.8C 8.8C 14.9C 1023.0 hPa 1018.5 hPa 0.0 mm 0.0 mm/hr 00:00 hrs 14.5 km/hr 1.6 km/hr 6.9 km
21/12/2016 24.7C 10.1C 17.2C 1023.0 hPa 1017.5 hPa 0.0 mm 0.0 mm/hr 00:00 hrs 14.5 km/hr 3.2 km/hr 19.0 km
22/12/2016 24.8C 13.7C 19.0C 1018.1 hPa 1006.5 hPa 0.0 mm 0.0 mm/hr 00:00 hrs 11.3 km/hr 3.2 km/hr 7.4 km
23/12/2016 20.0C 10.9C 15.6C 1008.0 hPa 1002.6 hPa 12.4 mm 50.4 mm/hr 12:52 hrs 19.3 km/hr 4.8 km/hr 40.1 km
24/12/2016 19.2C 11.0C 15.0C 1014.6 hPa 1007.6 hPa 1.6 mm 11.2 mm/hr 01:30 hrs 22.5 km/hr 4.8 km/hr 28.9 km
25/12/2016 19.3C 13.3C 15.9C 1017.6 hPa 1013.4 hPa 0.6 mm 0.0 mm/hr 00:00 hrs 14.5 km/hr 3.2 km/hr 8.5 km
26/12/2016 21.4C 10.9C 16.0C 1020.2 hPa 1017.1 hPa 0.2 mm 0.0 mm/hr 00:00 hrs 0.0 km/hr 0.0 km/hr 0.0 km
27/12/2016 19.8C 9.9C 14.9C 1020.3 hPa 1017.6 hPa 0.0 mm 0.0 mm/hr 00:00 hrs 8.0 km/hr 0.0 km/hr 0.0 km
28/12/2016 18.4C 12.7C 15.9C 1017.7 hPa 1013.7 hPa 2.8 mm 1.6 mm/hr 07:50 hrs 9.7 km/hr 1.6 km/hr 1.4 km
29/12/2016 18.7C 11.1C 14.4C 1014.8 hPa 1009.2 hPa 0.0 mm 0.0 mm/hr 00:00 hrs 14.5 km/hr 3.2 km/hr 10.6 km
30/12/2016 22.3C 9.9C 15.1C 1015.6 hPa 1011.0 hPa 0.0 mm 0.0 mm/hr 00:00 hrs 14.5 km/hr 1.6 km/hr 4.9 km
Back to top 31/12/2016 23.8C 10.2C 16.3C 1015.9 hPa 1013.3 hPa 0.0 mm 0.0 mm/hr 00:00 hrs 17.7 km/hr 4.8 km/hr 8.1 km
Tabled Data - scroll down for earlier years 2015 Temperature Pressure Rain Wind
Maximum Minimum Average Maximum Minimum Day Total Maximum Rain Rate High Gust Highest Av Run
C C C hPa hPa mm mm/hr time km/h km/h km
01/12/2015 21.9C 15.6C 17.9C 1029.8 hPa 1027.6 hPa 0.0 mm 0.0 mm/hr 00:00 hrs 17.7 km/hr 4.8 km/hr 26.9 km
02/12/2015 21.4C 13.4C 16.8C 1029.7 hPa 1025.8 hPa 0.0 mm 0.0 mm/hr 00:00 hrs 14.5 km/hr 3.2 km/hr 15.8 km
03/12/2015 21.4C 11.1C 16.7C 1027.0 hPa 1020.8 hPa 0.0 mm 0.0 mm/hr 00:00 hrs 12.9 km/hr 3.2 km/hr 11.1 km
04/12/2015 21.9C 13.5C 17.6C 1022.6 hPa 1018.4 hPa 0.0 mm 0.0 mm/hr 00:00 hrs 12.9 km/hr 1.6 km/hr 5.0 km
05/12/2015 20.7C 10.9C 15.6C 1020.2 hPa 1015.4 hPa 0.0 mm 0.0 mm/hr 00:00 hrs 12.9 km/hr 3.2 km/hr 13.0 km
06/12/2015 21.9C 10.2C 16.3C 1016.1 hPa 1014.2 hPa 0.4 mm 0.0 mm/hr 00:00 hrs 17.7 km/hr 3.2 km/hr 14.1 km
07/12/2015 19.9C 10.8C 15.5C 1015.6 hPa 1012.0 hPa 2.0 mm 115.2 mm/hr 11:28 hrs 14.5 km/hr 1.6 km/hr 8.6 km
08/12/2015 18.8C 11.9C 14.7C 1016.9 hPa 1013.8 hPa 0.2 mm 0.0 mm/hr 00:00 hrs 20.9 km/hr 4.8 km/hr 29.1 km
09/12/2015 19.6C 12.6C 15.4C 1020.0 hPa 1016.3 hPa 0.2 mm 0.0 mm/hr 00:00 hrs 16.1 km/hr 3.2 km/hr 21.9 km
10/12/2015 19.9C 12.4C 15.5C 1019.9 hPa 1015.8 hPa 0.0 mm 0.0 mm/hr 00:00 hrs 16.1 km/hr 3.2 km/hr 14.7 km
11/12/2015 19.1C 15.5C 16.8C 1016.1 hPa 1012.1 hPa 9.4 mm 4.8 mm/hr 16:20 hrs 12.9 km/hr 1.6 km/hr 3.0 km
12/12/2015 22.8C 16.0C 18.6C 1014.2 hPa 1011.8 hPa 0.0 mm 0.0 mm/hr 00:00 hrs 19.3 km/hr 4.8 km/hr 25.7 km
13/12/2015 21.0C 11.1C 16.9C 1017.0 hPa 1009.7 hPa 15.8 mm 56.0 mm/hr 04:56 hrs 25.7 km/hr 4.8 km/hr 33.8 km
14/12/2015 19.4C 9.0C 14.0C 1018.6 hPa 1016.2 hPa 0.0 mm 0.0 mm/hr 00:00 hrs 17.7 km/hr 3.2 km/hr 12.7 km
15/12/2015 19.4C 9.7C 14.5C 1017.2 hPa 1013.0 hPa 0.2 mm 0.0 mm/hr 00:00 hrs 12.9 km/hr 1.6 km/hr 8.9 km
16/12/2015 20.7C 10.6C 15.2C 1013.8 hPa 1008.2 hPa 2.0 mm 12.6 mm/hr 15:47 hrs 19.3 km/hr 3.2 km/hr 10.6 km
17/12/2015 19.3C 9.7C 14.1C 1009.5 hPa 1006.2 hPa 0.4 mm 0.0 mm/hr 00:00 hrs 14.5 km/hr 3.2 km/hr 10.2 km
18/12/2015 19.7C 10.4C 14.4C 1009.5 hPa 1006.1 hPa 0.2 mm 0.0 mm/hr 00:00 hrs 20.9 km/hr 3.2 km/hr 25.3 km
19/12/2015 21.1C 12.6C 16.2C 1015.8 hPa 1008.7 hPa 0.0 mm 0.0 mm/hr 00:00 hrs 22.5 km/hr 3.2 km/hr 26.3 km
20/12/2015 20.8C 12.2C 16.4C 1023.4 hPa 1015.7 hPa 0.0 mm 0.0 mm/hr 00:00 hrs 17.7 km/hr 3.2 km/hr 15.1 km
21/12/2015 21.6C 13.3C 17.3C 1023.3 hPa 1020.0 hPa 0.0 mm 0.0 mm/hr 00:00 hrs 14.5 km/hr 3.2 km/hr 16.1 km
22/12/2015 23.3C 15.5C 18.5C 1020.0 hPa 1013.4 hPa 0.0 mm 0.0 mm/hr 00:00 hrs 19.3 km/hr 3.2 km/hr 18.9 km
23/12/2015 21.5C 12.5C 17.2C 1016.5 hPa 1012.0 hPa 2.4 mm 2.4 mm/hr 01:41 hrs 22.5 km/hr 3.2 km/hr 10.3 km
24/12/2015 16.7C 13.3C 14.9C 1016.7 hPa 1014.7 hPa 26.6 mm 34.0 mm/hr 03:33 hrs 17.7 km/hr 1.6 km/hr 13.6 km
25/12/2015 20.8C 11.9C 15.5C 1019.7 hPa 1014.9 hPa 0.0 mm 0.0 mm/hr 00:00 hrs 14.5 km/hr 1.6 km/hr 10.5 km
26/12/2015 25.1C 10.9C 17.6C 1023.6 hPa 1019.5 hPa 0.0 mm 0.0 mm/hr 00:00 hrs 9.7 km/hr 1.6 km/hr 1.2 km
27/12/2015 24.6C 11.8C 17.9C 1023.8 hPa 1018.7 hPa 0.0 mm 0.0 mm/hr 00:00 hrs 12.9 km/hr 1.6 km/hr 1.6 km
28/12/2015 23.6C 12.1C 17.6C 1019.2 hPa 1009.7 hPa 0.0 mm 0.0 mm/hr 00:00 hrs 11.3 km/hr 1.6 km/hr 8.6 km
29/12/2015 22.8C 15.0C 18.4C 1009.8 hPa 1003.1 hPa 0.0 mm 0.0 mm/hr 00:00 hrs 19.3 km/hr 3.2 km/hr 15.8 km
30/12/2015 25.4C 13.7C 18.3C 1011.2 hPa 1002.8 hPa 4.4 mm 20.2 mm/hr 17:02 hrs 11.3 km/hr 3.2 km/hr 4.0 km
Back to top 31/12/2015 25.6C 14.7C 19.9C 1020.9 hPa 1011.0 hPa 0.0 mm 0.0 mm/hr 00:00 hrs 20.9 km/hr 6.4 km/hr 48.2 km
Tabled Data - scroll down for earlier years 2014 Temperature Pressure Rain Wind
Maximum Minimum Average Maximum Minimum Day Total Maximum Rain Rate High Gust Highest Av Run
C C C hPa hPa mm mm/hr time km/h km/h km
01/12/2014 17.4C 9.2C 13.0C 1015.0 hPa 1009.4 hPa 1.2 mm 2.0 mm/hr 03:32 hrs 17.7 km/hr 4.8 km/hr 30.5 km
02/12/2014 19.3C 7.0C 12.6C 1025.4 hPa 1015.0 hPa 0.4 mm 1.8 mm/hr 00:35 hrs 12.9 km/hr 3.2 km/hr 22.6 km
03/12/2014 19.8C 7.6C 13.4C 1027.2 hPa 1024.8 hPa 0.0 mm 0.0 mm/hr 00:00 hrs 17.7 km/hr 3.2 km/hr 22.1 km
04/12/2014 19.9C 9.2C 14.6C 1026.4 hPa 1022.5 hPa 0.0 mm 0.0 mm/hr 00:00 hrs 19.3 km/hr 3.2 km/hr 27.8 km
05/12/2014 20.9C 11.8C 16.4C 1023.3 hPa 1021.6 hPa 0.0 mm 0.0 mm/hr 00:00 hrs 14.5 km/hr 3.2 km/hr 25.6 km
06/12/2014 21.9C 12.9C 16.7C 1024.0 hPa 1021.9 hPa 0.8 mm 0.8 mm/hr 04:30 hrs 12.9 km/hr 3.2 km/hr 9.9 km
07/12/2014 22.2C 12.0C 17.2C 1023.7 hPa 1021.0 hPa 1.2 mm 1.4 mm/hr 23:00 hrs 17.7 km/hr 4.8 km/hr 32.4 km
08/12/2014 23.6C 16.2C 18.8C 1024.1 hPa 1021.3 hPa 5.6 mm 3.4 mm/hr 02:39 hrs 11.3 km/hr 1.6 km/hr 13.0 km
09/12/2014 21.2C 15.4C 17.6C 1023.9 hPa 1016.2 hPa 1.2 mm 0.0 mm/hr 00:00 hrs 9.7 km/hr 1.6 km/hr 6.2 km
10/12/2014 21.9C 15.9C 18.0C 1016.3 hPa 1009.4 hPa 16.4 mm 22.4 mm/hr 20:21 hrs 32.2 km/hr 6.4 km/hr 47.1 km
11/12/2014 20.7C 15.4C 17.7C 1011.9 hPa 1008.0 hPa 3.8 mm 2.4 mm/hr 08:27 hrs 12.9 km/hr 3.2 km/hr 11.6 km
12/12/2014 17.9C 12.5C 15.2C 1013.0 hPa 1009.7 hPa 0.8 mm 2.4 mm/hr 10:01 hrs 9.7 km/hr 1.6 km/hr 3.9 km
13/12/2014 18.2C 12.6C 14.8C 1013.5 hPa 1011.2 hPa 4.4 mm 3.4 mm/hr 22:13 hrs 9.7 km/hr 1.6 km/hr 1.0 km
14/12/2014 16.2C 13.2C 14.3C 1012.7 hPa 1004.4 hPa 55.2 mm 24.2 mm/hr 05:10 hrs 33.8 km/hr 9.7 km/hr 119.2 km
15/12/2014 17.8C 13.6C 15.5C 1013.9 hPa 1006.3 hPa 0.2 mm 0.0 mm/hr 00:00 hrs 29.0 km/hr 6.4 km/hr 91.4 km
16/12/2014 16.2C 14.1C 15.1C 1015.0 hPa 1010.6 hPa 0.8 mm 0.0 mm/hr 00:00 hrs 33.8 km/hr 9.7 km/hr 133.4 km
17/12/2014 20.1C 14.5C 17.1C 1011.9 hPa 1005.5 hPa 25.0 mm 79.0 mm/hr 17:10 hrs 30.6 km/hr 8.0 km/hr 93.8 km
18/12/2014 21.6C 16.4C 18.1C 1018.2 hPa 1010.1 hPa 0.8 mm 1.4 mm/hr 08:17 hrs 17.7 km/hr 3.2 km/hr 34.1 km
19/12/2014 26.4C 14.2C 19.8C 1019.6 hPa 1017.0 hPa 0.0 mm 0.0 mm/hr 00:00 hrs 12.9 km/hr 4.8 km/hr 9.1 km
20/12/2014 23.1C 15.0C 18.5C 1018.9 hPa 1010.8 hPa 6.8 mm 34.4 mm/hr 19:51 hrs 20.9 km/hr 4.8 km/hr 22.9 km
21/12/2014 22.8C 14.4C 18.3C 1018.1 hPa 1011.7 hPa 1.0 mm 0.0 mm/hr 00:00 hrs 12.9 km/hr 1.6 km/hr 7.8 km
22/12/2014 24.1C 12.2C 17.2C 1022.8 hPa 1017.3 hPa 0.0 mm 0.0 mm/hr 00:00 hrs 12.9 km/hr 3.2 km/hr 15.7 km
23/12/2014 24.3C 11.3C 17.6C 1025.5 hPa 1022.3 hPa 0.0 mm 0.0 mm/hr 00:00 hrs 17.7 km/hr 3.2 km/hr 17.8 km
24/12/2014 21.2C 14.8C 17.9C 1026.6 hPa 1024.6 hPa 0.8 mm 2.4 mm/hr 08:35 hrs 16.1 km/hr 4.8 km/hr 35.1 km
25/12/2014 22.1C 13.2C 17.5C 1026.6 hPa 1023.6 hPa 0.0 mm 0.0 mm/hr 00:00 hrs 12.9 km/hr 3.2 km/hr 15.6 km
26/12/2014 23.1C 12.4C 17.5C 1026.0 hPa 1023.7 hPa 0.0 mm 0.0 mm/hr 00:00 hrs 16.1 km/hr 4.8 km/hr 35.4 km
27/12/2014 22.9C 11.9C 17.2C 1025.8 hPa 1022.6 hPa 0.0 mm 0.0 mm/hr 00:00 hrs 16.1 km/hr 3.2 km/hr 23.3 km
28/12/2014 22.9C 13.9C 18.2C 1025.6 hPa 1022.8 hPa 0.0 mm 0.0 mm/hr 00:00 hrs 12.9 km/hr 4.8 km/hr 10.7 km
29/12/2014 25.0C 13.9C 18.8C 1025.6 hPa 1022.0 hPa 0.0 mm 0.0 mm/hr 00:00 hrs 17.7 km/hr 3.2 km/hr 22.8 km
30/12/2014 23.7C 12.3C 17.6C 1023.3 hPa 1017.0 hPa 0.0 mm 0.0 mm/hr 00:00 hrs 19.3 km/hr 4.8 km/hr 29.3 km
Back to top 31/12/2014 22.4C 13.7C 18.1C 1017.2 hPa 1010.8 hPa 0.8 mm 7.8 mm/hr 19:23 hrs 20.9 km/hr 6.4 km/hr 28.9 km
Tabled Data - scroll down for earlier years 2013 Temperature Pressure Rain Wind
Maximum Minimum Average Maximum Minimum Day Total Maximum Rain Rate High Gust Highest Av Run
C C C hPa hPa mm mm/hr time km/h km/h km
01/12/2013 20.7C 10.8C 15.2C 1022.5 hPa 1013.2 hPa 0.6 mm 1.2 mm/hr 00:26 hrs 12.9 km/hr 3.2 km/hr 20.9 km
02/12/2013 23.8C 9.6C 16.4C 1022.8 hPa 1019.4 hPa 0.0 mm 0.0 mm/hr 00:00 hrs 16.1 km/hr 4.8 km/hr 23.6 km
03/12/2013 19.6C 12.7C 16.4C 1022.2 hPa 1016.6 hPa 0.4 mm 0.0 mm/hr 00:00 hrs 19.3 km/hr 6.4 km/hr 59.9 km
04/12/2013 17.8C 16.5C 17.1C 1017.1 hPa 1012.0 hPa 35.8 mm 21.0 mm/hr 02:15 hrs 19.3 km/hr 6.4 km/hr 79.9 km
05/12/2013 21.2C 16.9C 18.4C 1012.2 hPa 1006.5 hPa 16.4 mm 42.0 mm/hr 10:51 hrs 17.7 km/hr 4.8 km/hr 41.4 km
06/12/2013 23.4C 15.2C 18.8C 1011.9 hPa 1008.8 hPa 0.6 mm 3.8 mm/hr 05:02 hrs 12.9 km/hr 3.2 km/hr 22.2 km
07/12/2013 20.7C 13.7C 16.8C 1012.2 hPa 1009.8 hPa 2.6 mm 17.2 mm/hr 09:26 hrs 17.7 km/hr 3.2 km/hr 13.7 km
08/12/2013 20.3C 13.3C 16.5C 1012.7 hPa 1009.8 hPa 1.2 mm 3.4 mm/hr 13:20 hrs 17.7 km/hr 4.8 km/hr 19.1 km
09/12/2013 22.4C 12.7C 16.9C 1015.5 hPa 1011.8 hPa 0.0 mm 0.0 mm/hr 00:00 hrs 9.7 km/hr 0.0 km/hr 0.0 km
10/12/2013 20.1C 11.6C 15.6C 1016.8 hPa 1014.6 hPa 0.0 mm 0.0 mm/hr 00:00 hrs 8.0 km/hr 1.6 km/hr 2.3 km
11/12/2013 19.8C 10.9C 15.1C 1016.6 hPa 1013.4 hPa 0.0 mm 0.0 mm/hr 00:00 hrs 1.6 km/hr 0.0 km/hr 0.0 km
12/12/2013 23.8C 11.9C 17.4C 1014.3 hPa 1010.6 hPa 0.0 mm 0.0 mm/hr 00:00 hrs 11.3 km/hr 3.2 km/hr 14.7 km
13/12/2013 26.1C 13.3C 18.7C 1016.9 hPa 1012.8 hPa 0.0 mm 0.0 mm/hr 00:00 hrs 9.7 km/hr 3.2 km/hr 9.9 km
14/12/2013 26.2C 13.2C 19.4C 1018.4 hPa 1016.1 hPa 0.0 mm 0.0 mm/hr 00:00 hrs 9.7 km/hr 3.2 km/hr 9.4 km
15/12/2013 27.2C 14.2C 19.5C 1018.3 hPa 1014.1 hPa 4.6 mm 33.8 mm/hr 16:38 hrs 9.7 km/hr 3.2 km/hr 9.3 km
16/12/2013 26.6C 13.4C 19.3C 1015.9 hPa 1012.1 hPa 0.0 mm 0.0 mm/hr 00:00 hrs 11.3 km/hr 3.2 km/hr 15.0 km
17/12/2013 24.5C 13.0C 18.5C 1015.7 hPa 1012.8 hPa 0.0 mm 0.0 mm/hr 00:00 hrs 11.3 km/hr 3.2 km/hr 25.3 km
18/12/2013 22.3C 11.8C 16.4C 1016.0 hPa 1013.8 hPa 0.2 mm 0.0 mm/hr 00:00 hrs 14.5 km/hr 4.8 km/hr 28.2 km
19/12/2013 21.6C 14.1C 17.2C 1015.5 hPa 1012.8 hPa 0.8 mm 15.2 mm/hr 07:27 hrs 17.7 km/hr 4.8 km/hr 45.7 km
20/12/2013 22.9C 11.4C 16.4C 1017.6 hPa 1015.0 hPa 0.0 mm 0.0 mm/hr 00:00 hrs 11.3 km/hr 3.2 km/hr 21.9 km
21/12/2013 21.8C 10.1C 15.9C 1017.3 hPa 1012.1 hPa 0.0 mm 0.0 mm/hr 00:00 hrs 14.5 km/hr 3.2 km/hr 30.8 km
22/12/2013 20.8C 12.6C 16.8C 1015.9 hPa 1009.9 hPa 2.2 mm 12.0 mm/hr 06:18 hrs 19.3 km/hr 4.8 km/hr 56.2 km
23/12/2013 21.7C 9.8C 15.6C 1019.1 hPa 1015.5 hPa 0.0 mm 0.0 mm/hr 00:00 hrs 14.5 km/hr 3.2 km/hr 22.0 km
24/12/2013 20.8C 11.9C 16.7C 1018.9 hPa 1012.8 hPa 0.0 mm 0.0 mm/hr 00:00 hrs 17.7 km/hr 3.2 km/hr 23.7 km
25/12/2013 20.8C 14.8C 17.4C 1013.1 hPa 1007.0 hPa 10.6 mm 71.2 mm/hr 07:30 hrs 19.3 km/hr 4.8 km/hr 49.1 km
26/12/2013 20.8C 12.2C 15.8C 1010.1 hPa 1007.7 hPa 2.4 mm 15.8 mm/hr 08:17 hrs 12.9 km/hr 3.2 km/hr 22.9 km
27/12/2013 22.9C 11.3C 16.3C 1010.7 hPa 1008.2 hPa 0.0 mm 0.0 mm/hr 00:00 hrs 12.9 km/hr 3.2 km/hr 16.1 km
28/12/2013 20.9C 12.7C 16.6C 1010.5 hPa 1006.4 hPa 0.6 mm 2.6 mm/hr 22:21 hrs 16.1 km/hr 4.8 km/hr 29.5 km
29/12/2013 24.4C 14.9C 17.8C 1006.8 hPa 1002.8 hPa 30.4 mm 110.8 mm/hr 16:17 hrs 20.9 km/hr 4.8 km/hr 25.9 km
30/12/2013 20.4C 13.5C 16.8C 1007.5 hPa 1003.0 hPa 2.4 mm 8.8 mm/hr 15:19 hrs 11.3 km/hr 3.2 km/hr 21.0 km
Back to top 31/12/2013 21.9C 10.4C 16.2C 1015.1 hPa 1007.5 hPa 0.2 mm 0.0 mm/hr 00:00 hrs 12.9 km/hr 3.2 km/hr 23.5 km
Tabled Data - scroll down 2012 Temperature Pressure Rain Wind
for earlier years Maximum Minimum Average Maximum Minimum Day Total Maximum Rain Rate High Gust Highest Av Run
C C C hPa hPa mm mm/hr time km/h km/h km
01/12/2012 19.4C 8.6C 13.9C 1020.4 hPa 1016.5 hPa 0.0 mm 0.0 mm/hr 00:00 hrs 16.1 km/hr 4.8 km/hr 26.0 km
02/12/2012 19.7C 13.3C 15.8C 1018.7 hPa 1009.7 hPa 0.2 mm 0.0 mm/hr 00:00 hrs 22.5 km/hr 4.8 km/hr 65.9 km
03/12/2012 20.1C 11.4C 16.4C 1013.4 hPa 1007.2 hPa 5.4 mm 7.8 mm/hr 03:59 hrs 17.7 km/hr 4.8 km/hr 53.2 km
04/12/2012 20.6C 10.3C 15.3C 1014.0 hPa 1009.5 hPa 0.0 mm 0.0 mm/hr 00:00 hrs 8.0 km/hr 3.2 km/hr 9.1 km
05/12/2012 19.5C 14.2C 17.3C 1009.8 hPa 1003.9 hPa 10.6 mm 48.8 mm/hr 12:19 hrs 22.5 km/hr 6.4 km/hr 37.3 km
06/12/2012 21.7C 14.9C 17.4C 1006.9 hPa 1002.2 hPa 43.0 mm 576.0 mm/hr 12:10 hrs 20.9 km/hr 4.8 km/hr 36.7 km
07/12/2012 18.6C 11.0C 14.3C 1012.6 hPa 1004.3 hPa 4.4 mm 65.0 mm/hr 07:00 hrs 24.1 km/hr 6.4 km/hr 62.2 km
08/12/2012 20.6C 10.1C 15.1C 1021.5 hPa 1011.4 hPa 3.0 mm 20.4 mm/hr 03:41 hrs 14.5 km/hr 3.2 km/hr 42.4 km
09/12/2012 20.9C 9.1C 14.3C 1025.2 hPa 1020.9 hPa 0.0 mm 0.0 mm/hr 00:00 hrs 11.3 km/hr 3.2 km/hr 23.5 km
10/12/2012 21.5C 9.1C 14.6C 1025.8 hPa 1023.8 hPa 0.0 mm 0.0 mm/hr 00:00 hrs 11.3 km/hr 3.2 km/hr 23.1 km
11/12/2012 19.8C 10.3C 15.1C 1025.8 hPa 1022.2 hPa 0.4 mm 0.8 mm/hr 19:45 hrs 11.3 km/hr 3.2 km/hr 17.0 km
12/12/2012 22.4C 13.6C 16.9C 1024.1 hPa 1021.5 hPa 0.2 mm 0.0 mm/hr 00:00 hrs 9.7 km/hr 3.2 km/hr 12.6 km
13/12/2012 23.8C 12.8C 17.8C 1024.5 hPa 1021.6 hPa 0.0 mm 0.0 mm/hr 00:00 hrs 16.1 km/hr 3.2 km/hr 23.8 km
14/12/2012 22.4C 12.0C 16.8C 1024.4 hPa 1020.0 hPa 0.0 mm 0.0 mm/hr 00:00 hrs 9.7 km/hr 3.2 km/hr 14.6 km
15/12/2012 24.1C 11.1C 17.6C 1023.4 hPa 1020.0 hPa 0.0 mm 0.0 mm/hr 00:00 hrs 9.7 km/hr 3.2 km/hr 11.1 km
16/12/2012 23.1C 12.4C 17.6C 1023.6 hPa 1019.3 hPa 0.0 mm 0.0 mm/hr 00:00 hrs 12.9 km/hr 4.8 km/hr 29.1 km
17/12/2012 23.4C 16.4C 18.6C 1020.0 hPa 1013.2 hPa 0.2 mm 0.0 mm/hr 00:00 hrs 12.9 km/hr 3.2 km/hr 19.8 km
18/12/2012 22.4C 16.9C 19.1C 1013.8 hPa 1010.3 hPa 4.0 mm 13.8 mm/hr 09:35 hrs 17.7 km/hr 4.8 km/hr 15.8 km
19/12/2012 23.5C 13.8C 18.5C 1017.3 hPa 1011.7 hPa 0.2 mm 0.0 mm/hr 00:00 hrs 9.7 km/hr 3.2 km/hr 15.3 km
20/12/2012 23.8C 11.8C 17.9C 1019.4 hPa 1016.7 hPa 0.0 mm 0.0 mm/hr 00:00 hrs 16.1 km/hr 4.8 km/hr 33.2 km
21/12/2012 26.1C 17.5C 20.1C 1018.6 hPa 1013.2 hPa 1.4 mm 1.4 mm/hr 05:57 hrs 16.1 km/hr 4.8 km/hr 14.4 km
22/12/2012 24.7C 15.1C 19.9C 1015.3 hPa 1012.5 hPa 0.0 mm 0.0 mm/hr 00:00 hrs 9.7 km/hr 3.2 km/hr 11.9 km
23/12/2012 22.6C 16.8C 19.8C 1014.7 hPa 1012.2 hPa 1.2 mm 12.4 mm/hr 13:45 hrs 20.9 km/hr 4.8 km/hr 40.8 km
24/12/2012 24.3C 19.1C 20.6C 1013.1 hPa 1011.1 hPa 7.8 mm 69.4 mm/hr 15:00 hrs 22.5 km/hr 4.8 km/hr 88.5 km
25/12/2012 21.6C 18.8C 19.5C 1012.1 hPa 1008.5 hPa 8.8 mm 9.0 mm/hr 03:33 hrs 30.6 km/hr 6.4 km/hr 98.4 km
26/12/2012 19.9C 17.7C 18.7C 1012.2 hPa 1007.3 hPa 18.0 mm 34.0 mm/hr 06:30 hrs 19.3 km/hr 4.8 km/hr 52.8 km
27/12/2012 19.8C 17.6C 18.5C 1018.8 hPa 1011.9 hPa 4.2 mm 1.8 mm/hr 08:00 hrs 14.5 km/hr 3.2 km/hr 19.1 km
28/12/2012 23.0C 17.6C 19.1C 1019.7 hPa 1017.8 hPa 0.4 mm 0.0 mm/hr 00:00 hrs 9.7 km/hr 3.2 km/hr 6.5 km
29/12/2012 26.3C 15.2C 20.3C 1019.4 hPa 1014.2 hPa 0.2 mm 0.0 mm/hr 00:00 hrs 11.3 km/hr 3.2 km/hr 8.2 km
30/12/2012 24.4C 16.3C 18.9C 1015.0 hPa 1008.9 hPa 5.0 mm 8.6 mm/hr 06:25 hrs 22.5 km/hr 6.4 km/hr 38.0 km
Back to top 31/12/2012 22.2C 11.4C 17.3C 1021.5 hPa 1010.4 hPa 2.8 mm 110.8 mm/hr 00:46 hrs 16.1 km/hr 4.8 km/hr 42.7 km
2011 Temperature Pressure Rain Wind
Maximum Minimum Average Maximum Minimum Day Total Maximum Rain Rate High Gust Highest Av Run
C C C hPa hPa mm mm/hr time km/h km/h km
01/12/2011 20.6C 12.4C 15.5C 1032.0 hPa 1027.7 hPa 0.0 mm 0.0 mm/hr 00:00 hrs 19.3 km/hr 6.8 km/hr 92.1 km
02/12/2011 22.1C 13.7C 16.8C 1028.0 hPa 1022.7 hPa 0.2 mm 0.0 mm/hr 00:00 hrs 16.1 km/hr 5.0 km/hr 52.8 km
03/12/2011 22.8C 14.2C 18.0C 1024.0 hPa 1018.0 hPa 0.0 mm 0.0 mm/hr 00:00 hrs 16.1 km/hr 5.2 km/hr 59.0 km
04/12/2011 17.2C 16.1C 16.7C 1018.2 hPa 1009.1 hPa 29.2 mm 38.4 mm/hr 16:31 hrs 16.1 km/hr 5.1 km/hr 58.1 km
05/12/2011 22.0C 15.6C 17.9C 1011.5 hPa 1007.6 hPa 0.4 mm 0.0 mm/hr 00:00 hrs 8.0 km/hr 1.7 km/hr 6.8 km
06/12/2011 21.3C 13.4C 17.3C 1007.6 hPa 1003.5 hPa 3.4 mm 19.8 mm/hr 07:52 hrs 19.3 km/hr 4.8 km/hr 27.1 km
07/12/2011 20.3C 12.8C 15.9C 1008.4 hPa 1000.6 hPa 0.4 mm 4.2 mm/hr 04:54 hrs 17.7 km/hr 5.0 km/hr 48.4 km
08/12/2011 21.7C 12.2C 15.9C 1020.1 hPa 1008.2 hPa 0.4 mm 8.0 mm/hr 00:34 hrs 12.9 km/hr 3.2 km/hr 24.1 km
09/12/2011 23.4C 11.5C 16.9C 1026.3 hPa 1020.0 hPa 0.0 mm 0.0 mm/hr 00:00 hrs 12.9 km/hr 3.9 km/hr 30.2 km
10/12/2011 21.7C 15.1C 16.8C 1026.2 hPa 1021.3 hPa 0.0 mm 0.0 mm/hr 00:00 hrs 19.3 km/hr 6.6 km/hr 95.7 km
11/12/2011 19.5C 14.4C 16.4C 1023.2 hPa 1018.6 hPa 0.0 mm 0.0 mm/hr 00:00 hrs 25.7 km/hr 7.4 km/hr 107.2 km
12/12/2011 16.2C 14.8C 15.7C 1018.8 hPa 1017.0 hPa 15.8 mm 12.4 mm/hr 14:21 hrs 16.1 km/hr 4.8 km/hr 77.9 km
13/12/2011 17.9C 16.1C 16.9C 1018.8 hPa 1017.1 hPa 5.0 mm 4.8 mm/hr 19:28 hrs 19.3 km/hr 4.8 km/hr 68.8 km
14/12/2011 19.2C 16.1C 17.1C 1018.5 hPa 1011.2 hPa 8.6 mm 7.6 mm/hr 23:43 hrs 24.1 km/hr 8.6 km/hr 103.2 km
15/12/2011 18.1C 15.8C 16.8C 1011.3 hPa 1002.9 hPa 30.8 mm 20.2 mm/hr 08:17 hrs 17.7 km/hr 5.9 km/hr 68.9 km
16/12/2011 19.4C 14.4C 16.8C 1005.0 hPa 1002.4 hPa 5.4 mm 43.4 mm/hr 05:31 hrs 20.9 km/hr 6.9 km/hr 48.4 km
17/12/2011 19.9C 14.4C 16.6C 1004.0 hPa 1000.8 hPa 3.6 mm 13.8 mm/hr 18:06 hrs 19.3 km/hr 6.0 km/hr 34.9 km
18/12/2011 15.6C 11.8C 13.0C 1011.0 hPa 1003.7 hPa 7.2 mm 4.6 mm/hr 13:59 hrs 12.9 km/hr 4.2 km/hr 23.1 km
19/12/2011 21.4C 11.2C 14.8C 1015.5 hPa 1010.5 hPa 0.2 mm 0.0 mm/hr 00:00 hrs 11.3 km/hr 3.7 km/hr 16.0 km
20/12/2011 20.7C 10.9C 14.8C 1025.1 hPa 1015.5 hPa 1.6 mm 5.6 mm/hr 15:07 hrs 9.7 km/hr 3.3 km/hr 12.0 km
21/12/2011 22.5C 11.2C 16.0C 1028.9 hPa 1025.0 hPa 0.0 mm 0.0 mm/hr 00:00 hrs 12.9 km/hr 3.5 km/hr 15.2 km
22/12/2011 21.2C 12.2C 16.1C 1028.5 hPa 1023.9 hPa 0.8 mm 0.0 mm/hr 00:00 hrs 12.9 km/hr 3.9 km/hr 13.9 km
23/12/2011 21.7C 11.6C 15.5C 1024.7 hPa 1021.1 hPa 0.0 mm 0.0 mm/hr 00:00 hrs 11.3 km/hr 3.4 km/hr 17.5 km
24/12/2011 23.2C 10.4C 15.9C 1023.4 hPa 1020.4 hPa 0.0 mm 0.0 mm/hr 00:00 hrs 9.7 km/hr 3.5 km/hr 15.1 km
25/12/2011 21.3C 11.9C 16.5C 1023.4 hPa 1019.6 hPa 0.0 mm 0.0 mm/hr 00:00 hrs 8.0 km/hr 2.2 km/hr 10.2 km
26/12/2011 22.3C 12.3C 16.5C 1022.1 hPa 1017.3 hPa 0.0 mm 0.0 mm/hr 00:00 hrs 9.7 km/hr 3.7 km/hr 24.9 km
27/12/2011 20.8C 11.8C 16.6C 1018.6 hPa 1014.2 hPa 0.0 mm 0.0 mm/hr 00:00 hrs 16.1 km/hr 5.1 km/hr 51.8 km
28/12/2011 21.2C 15.7C 18.0C 1015.6 hPa 1012.4 hPa 0.0 mm 0.0 mm/hr 00:00 hrs 24.1 km/hr 7.0 km/hr 99.3 km
29/12/2011 19.7C 16.6C 17.9C 1013.1 hPa 1009.1 hPa 18.2 mm 20.0 mm/hr 21:03 hrs 22.5 km/hr 6.7 km/hr 113.0 km
30/12/2011 20.6C 17.7C 18.9C 1010.4 hPa 1006.2 hPa 25.4 mm 40.0 mm/hr 07:02 hrs 17.7 km/hr 5.3 km/hr 70.6 km
Back to top 31/12/2011 22.0C 18.3C 19.5C 1006.3 hPa 1002.5 hPa 40.6 mm 98.4 mm/hr 13:27 hrs 11.3 km/hr 3.3 km/hr 26.4 km
2010 Temperature Pressure Rain Wind
Maximum Minimum Average Maximum Minimum Day Total Maximum Rain Rate High Gust Highest Av Run
C C C hPa hPa mm mm/hr time km/h km/h km
01/12/2010 23.8C 12.6C 17.6C 1022.0 hPa 1018.9 hPa 0.0 mm 0.0 mm/hr 00:00 hrs 8.0 km/hr 3.1 km/hr 13.9 km
02/12/2010 19.2C 14.9C 16.5C 1021.9 hPa 1018.5 hPa 0.6 mm 0.0 mm/hr 00:00 hrs 6.4 km/hr 1.4 km/hr 4.6 km
03/12/2010 20.1C 14.5C 16.9C 1020.8 hPa 1018.2 hPa 0.0 mm 0.0 mm/hr 00:00 hrs 8.0 km/hr 1.8 km/hr 6.7 km
04/12/2010 22.3C 14.6C 17.0C 1020.5 hPa 1018.2 hPa 0.2 mm 0.0 mm/hr 00:00 hrs 8.0 km/hr 2.3 km/hr 6.3 km
05/12/2010 21.9C 12.4C 16.9C 1020.3 hPa 1015.0 hPa 0.0 mm 0.0 mm/hr 00:00 hrs 11.3 km/hr 4.2 km/hr 23.0 km
06/12/2010 20.6C 11.5C 16.7C 1016.0 hPa 1012.7 hPa 0.0 mm 0.0 mm/hr 00:00 hrs 11.3 km/hr 4.9 km/hr 37.2 km
07/12/2010 20.7C 14.9C 17.3C 1017.8 hPa 1012.8 hPa 1.8 mm 13.6 mm/hr 04:00 hrs 12.9 km/hr 8.0 km/hr 39.7 km
08/12/2010 22.2C 12.4C 16.5C 1019.2 hPa 1016.9 hPa 0.0 mm 0.0 mm/hr 00:00 hrs 17.7 km/hr 4.7 km/hr 29.1 km
09/12/2010 23.1C 10.9C 15.6C 1020.0 hPa 1017.6 hPa 0.0 mm 0.0 mm/hr 00:00 hrs 12.9 km/hr 4.8 km/hr 20.0 km
10/12/2010 20.9C 10.6C 15.4C 1018.8 hPa 1012.2 hPa 0.0 mm 0.0 mm/hr 00:00 hrs 12.9 km/hr 5.2 km/hr 34.1 km
11/12/2010 21.6C 12.5C 17.5C 1014.3 hPa 1010.2 hPa 0.6 mm 0.0 mm/hr 00:00 hrs 38.6 km/hr 6.8 km/hr 56.0 km
12/12/2010 25.3C 16.7C 19.6C 1019.1 hPa 1013.9 hPa 1.8 mm 5.8 mm/hr 06:24 hrs 11.3 km/hr 3.9 km/hr 24.0 km
13/12/2010 25.9C 15.2C 20.0C 1020.5 hPa 1018.0 hPa 0.0 mm 0.0 mm/hr 00:00 hrs 12.9 km/hr 4.2 km/hr 34.5 km
14/12/2010 23.4C 19.1C 20.4C 1019.3 hPa 1015.2 hPa 17.6 mm 24.8 mm/hr 07:42 hrs 8.0 km/hr 2.7 km/hr 11.4 km
15/12/2010 25.9C 17.1C 20.8C 1018.2 hPa 1015.0 hPa 0.0 mm 0.0 mm/hr 00:00 hrs 11.3 km/hr 4.0 km/hr 16.1 km
16/12/2010 19.6C 17.1C 17.7C 1018.1 hPa 1015.1 hPa 16.6 mm 10.8 mm/hr 14:54 hrs 17.7 km/hr 6.3 km/hr 100.3 km
17/12/2010 23.1C 18.3C 19.9C 1015.5 hPa 1010.9 hPa 5.2 mm 11.2 mm/hr 15:48 hrs 14.5 km/hr 4.2 km/hr 53.9 km
18/12/2010 22.9C 19.1C 20.0C 1012.0 hPa 1010.1 hPa 13.6 mm 35.6 mm/hr 01:02 hrs 14.5 km/hr 5.1 km/hr 54.1 km
19/12/2010 20.1C 18.2C 19.4C 1014.4 hPa 1010.0 hPa 36.0 mm 36.6 mm/hr 13:21 hrs 12.9 km/hr 4.4 km/hr 38.0 km
20/12/2010 24.4C 17.9C 20.5C 1015.8 hPa 1013.7 hPa 12.4 mm 29.8 mm/hr 21:10 hrs 12.9 km/hr 3.1 km/hr 23.7 km
21/12/2010 27.4C 18.8C 22.4C 1019.1 hPa 1014.3 hPa 0.2 mm 0.0 mm/hr 00:00 hrs 24.1 km/hr 7.0 km/hr 48.8 km
22/12/2010 26.5C 18.3C 21.4C 1022.3 hPa 1017.9 hPa 0.0 mm 0.0 mm/hr 00:00 hrs 22.5 km/hr 8.0 km/hr 46.4 km
23/12/2010 24.9C 13.9C 18.9C 1023.5 hPa 1021.4 hPa 0.0 mm 0.0 mm/hr 00:00 hrs 9.7 km/hr 3.4 km/hr 14.6 km
24/12/2010 19.7C 13.8C 17.0C 1021.7 hPa 1015.3 hPa 1.4 mm 4.8 mm/hr 16:34 hrs 11.3 km/hr 4.3 km/hr 21.6 km
25/12/2010 19.2C 12.1C 15.8C 1019.8 hPa 1017.6 hPa 0.0 mm 0.0 mm/hr 00:00 hrs 12.9 km/hr 5.2 km/hr 33.7 km
26/12/2010 22.3C 13.3C 16.8C 1019.1 hPa 1015.6 hPa 0.0 mm 0.0 mm/hr 00:00 hrs 12.9 km/hr 3.5 km/hr 15.0 km
27/12/2010 24.4C 13.1C 18.4C 1017.5 hPa 1012.3 hPa 3.0 mm 13.4 mm/hr 16:06 hrs 14.5 km/hr 4.0 km/hr 17.8 km
28/12/2010 23.0C 14.3C 18.9C 1018.2 hPa 1006.6 hPa 20.4 mm 27.0 mm/hr 11:55 hrs 45.1 km/hr 10.4 km/hr 77.3 km
29/12/2010 22.8C 12.3C 16.8C 1022.7 hPa 1018.0 hPa 0.0 mm 0.0 mm/hr 00:00 hrs 9.7 km/hr 3.3 km/hr 12.9 km
30/12/2010 22.9C 13.3C 18.3C 1022.2 hPa 1016.0 hPa 0.0 mm 0.0 mm/hr 00:00 hrs 11.3 km/hr 4.5 km/hr 31.4 km
Back to top 31/12/2010 24.1C 15.8C 19.2C 1016.5 hPa 1012.8 hPa 0.0 mm 0.0 mm/hr 00:00 hrs 12.9 km/hr 5.0 km/hr 29.1 km
2009 Temperature Pressure Rain Wind
Maximum Minimum Average Maximum Minimum Day Total Maximum Rain Rate High Gust Highest Av Run
C C C hPa hPa mm mm/hr time km/h km/h km
01/12/2009 22.5C 15.9C 19.2C 1013.0 hPa 1013.0 hPa 0.0 mm          
02/12/2009 18.8C 15.7C 17.3C 1011.0 hPa 1010.0 hPa 6.3 mm          
03/12/2009 20.4C 15.4C 17.9C 1013.0 hPa 1011.0 hPa 0.0 mm          
04/12/2009 14.2C 12.2C 13.2C 1015.0 hPa 1014.0 hPa 60.3 mm          
05/12/2009 17.7C 11.0C 14.4C 1016.0 hPa 1014.0 hPa 3.1 mm          
06/12/2009 19.5C 10.0C 14.8C 1016.0 hPa 1014.0 hPa 0.0 mm          
07/12/2009 19.9C 11.1C 15.5C 1017.0 hPa 1015.0 hPa 0.0 mm          
08/12/2009 20.3C 9.9C 15.1C 1019.0 hPa 1017.0 hPa 0.0 mm          
09/12/2009 22.1C 10.9C 16.5C 1018.0 hPa 1018.0 hPa 0.0 mm          
10/12/2009 24.2C 11.8C 18.0C 1019.0 hPa 1017.0 hPa 0.0 mm          
11/12/2009 23.6C 13.4C 18.5C 1017.0 hPa 1015.0 hPa 0.0 mm          
12/12/2009 20.0C 17.4C 18.7C 1012.0 hPa 1010.0 hPa 0.4 mm          
13/12/2009 19.8C 10.3C 15.1C 1014.0 hPa 1013.0 hPa 0.0 mm          
14/12/2009 20.4C 14.5C 17.5C 1010.0 hPa 1009.0 hPa 9.4 mm          
15/12/2009 18.1C 9.9C 14.0C 1015.0 hPa 1012.0 hPa 0.9 mm          
16/12/2009 18.4C 7.8C 13.1C 1019.0 hPa 1018.0 hPa 0.0 mm          
17/12/2009 18.5C 9.8C 14.2C 1024.0 hPa 1022.0 hPa 0.0 mm          
18/12/2009 20.2C 9.9C 15.1C 1023.0 hPa 1020.0 hPa 0.0 mm          
19/12/2009 22.2C 11.4C 16.8C 1018.0 hPa 1013.0 hPa 0.0 mm          
20/12/2009 20.7C 16.1C 18.4C 1010.0 hPa 1010.0 hPa 1.3 mm          
21/12/2009 19.2C 11.5C 15.4C 1017.0 hPa 1013.0 hPa 0.0 mm          
22/12/2009 20.3C 9.9C 15.1C 1023.0 hPa 1021.0 hPa 0.0 mm          
23/12/2009 20.4C 13.4C 16.9C 1024.0 hPa 1023.0 hPa 0.8 mm          
24/12/2009 23.9C 12.2C 18.1C 1026.0 hPa 1025.0 hPa 0.0 mm          
25/12/2009 24.9C 11.6C 18.3C 1027.0 hPa 1027.0 hPa 0.0 mm          
26/12/2009 24.6C 12.2C 18.4C 1027.0 hPa 1025.0 hPa 0.0 mm          
27/12/2009 22.2C 13.5C 17.9C 1025.0 hPa 1022.0 hPa 0.0 mm          
28/12/2009 23.5C 16.0C 19.8C 1022.0 hPa 1022.0 hPa 0.0 mm          
29/12/2009 19.6C 17.4C 18.5C 1019.0 hPa 1016.0 hPa 6.0 mm          
30/12/2009 20.2C 15.8C 18.0C 1013.0 hPa 1013.0 hPa 2.2 mm          
Back to top 31/12/2009 18.5C 12.2C 15.4C 1019.0 hPa 1017.0 hPa 0.0 mm          
2008 Temperature Pressure Rain Wind
Maximum Minimum Average Maximum Minimum Day Total Maximum Rain Rate High Gust Highest Av Run
C C C hPa hPa mm mm/hr time km/h km/h km
01/12/2008 17.4C 15.6C 16.5C 1008.0 hPa 1004.0 hPa 8.1 mm          
02/12/2008 19.7C 14.0C 16.9C 1016.0 hPa 1012.0 hPa 8.1 mm          
03/12/2008 22.8C 14.9C 18.9C 1023.0 hPa 1022.0 hPa 0.0 mm          
04/12/2008 23.2C 14.0C 18.6C 1024.0 hPa 1021.0 hPa 0.0 mm          
05/12/2008 22.4C 15.9C 19.2C 1020.0 hPa 1019.0 hPa 0.4 mm          
06/12/2008 22.8C 11.8C 17.3C 1018.0 hPa 1016.0 hPa 0.0 mm          
07/12/2008 24.0C 11.8C 17.9C 1016.0 hPa 1014.0 hPa 0.0 mm          
08/12/2008 19.0C 13.4C 16.2C 1011.0 hPa 1008.0 hPa 2.7 mm          
09/12/2008 17.1C 14.5C 15.8C 1006.0 hPa 1006.0 hPa 29.2 mm          
10/12/2008 22.0C 13.4C 17.7C 1010.0 hPa 1010.0 hPa 0.4 mm          
11/12/2008 18.7C 13.6C 16.2C 1011.0 hPa 1010.0 hPa 0.0 mm          
12/12/2008 21.2C 12.8C 17.0C 1008.0 hPa 1008.0 hPa 0.4 mm          
13/12/2008 22.5C 11.9C 17.2C 1009.0 hPa 1009.0 hPa 0.0 mm          
14/12/2008 18.4C 13.8C 16.1C 1010.0 hPa 1009.0 hPa 3.6 mm          
15/12/2008 19.6C 15.2C 17.4C 1007.0 hPa 1003.0 hPa 2.7 mm          
16/12/2008 24.0C 16.2C 20.1C 1001.0 hPa 1000.0 hPa 2.2 mm          
17/12/2008 18.9C 14.0C 16.5C 1010.0 hPa 1002.0 hPa 2.2 mm          
18/12/2008 20.8C 12.6C 16.7C 1014.0 hPa 1012.0 hPa 0.0 mm          
19/12/2008 22.0C 13.7C 17.9C 1014.0 hPa 1012.0 hPa 0.0 mm          
20/12/2008 23.2C 14.9C 19.1C 1008.0 hPa 1006.0 hPa 2.7 mm          
21/12/2008 21.4C 14.4C 17.9C 1012.0 hPa 1007.0 hPa 3.6 mm          
22/12/2008 22.5C 12.9C 17.7C 1016.0 hPa 1014.0 hPa 0.0 mm          
23/12/2008 19.9C 13.2C 16.6C 1015.0 hPa 1010.0 hPa 20.7 mm          
24/12/2008 17.0C 12.3C 14.7C 1007.0 hPa 1004.0 hPa 40.0 mm          
25/12/2008 21.0C 14.5C 17.8C 1018.0 hPa 1015.0 hPa 0.0 mm          
26/12/2008 23.0C 12.4C 17.7C 1023.0 hPa 1022.0 hPa 0.0 mm          
27/12/2008 21.0C 13.8C 17.4C 1023.0 hPa 1021.0 hPa 0.0 mm          
28/12/2008 24.1C 14.1C 19.1C 1020.0 hPa 1016.0 hPa 0.0 mm          
29/12/2008 20.0C 13.0C 16.5C 1013.0 hPa 1007.0 hPa 7.6 mm          
30/12/2008 21.0C 16.3C 18.7C 1009.0 hPa 1008.0 hPa 5.8 mm          
Back to top 31/12/2008 24.0C 15.0C 19.5C 1006.0 hPa 1005.0 hPa 0.0 mm          
2007 Temperature Pressure Rain Wind
Maximum Minimum Average Maximum Minimum Day Total Maximum Rain Rate High Gust Highest Av Run
C C C hPa hPa mm mm/hr time km/h km/h km
01/12/2007 22.1C 11.7C 16.9C 1012.0 hPa 1011.0 hPa 0.0 mm          
02/12/2007 21.5C 13.0C 17.3C 1014.0 hPa 1012.0 hPa 1.3 mm          
03/12/2007 21.9C 14.4C 18.2C 1019.0 hPa 1018.0 hPa 0.0 mm          
04/12/2007 21.4C 13.2C 17.3C 1023.0 hPa 1022.0 hPa 0.0 mm          
05/12/2007 20.0C 16.5C 18.3C 1021.0 hPa 1019.0 hPa 4.0 mm          
06/12/2007 21.6C 16.4C 19.0C 1014.0 hPa 1012.0 hPa 18.0 mm          
07/12/2007 21.2C 13.0C 17.1C 1016.0 hPa 1015.0 hPa 0.0 mm          
08/12/2007 24.4C 12.2C 18.3C 1018.0 hPa 1015.0 hPa 0.0 mm          
09/12/2007 17.9C 16.9C 17.4C 1022.0 hPa 1021.0 hPa 4.9 mm          
10/12/2007 18.1C 16.6C 17.4C 1025.0 hPa 1024.0 hPa 1.3 mm          
11/12/2007 18.7C 16.0C 17.4C 1024.0 hPa 1024.0 hPa 0.0 mm          
12/12/2007 20.0C 16.0C 18.0C 1024.0 hPa 1023.0 hPa 0.0 mm          
13/12/2007 21.0C 15.4C 18.2C 1024.0 hPa 1024.0 hPa 0.0 mm          
14/12/2007 23.2C 15.1C 19.2C 1025.0 hPa 1024.0 hPa 0.0 mm          
15/12/2007 21.0C 15.0C 18.0C 1024.0 hPa 1024.0 hPa 0.0 mm          
16/12/2007 21.0C 15.5C 18.3C 1024.0 hPa 1023.0 hPa 1.3 mm          
17/12/2007 22.1C 15.4C 18.8C 1021.0 hPa 1019.0 hPa 0.9 mm          
18/12/2007 22.4C 16.9C 19.7C 1017.0 hPa 1014.0 hPa 18.4 mm          
19/12/2007 19.9C 16.8C 18.4C 1011.0 hPa 1011.0 hPa 4.9 mm          
20/12/2007 21.1C 15.0C 18.1C 1015.0 hPa 1014.0 hPa 0.4 mm          
21/12/2007 17.5C 13.2C 15.4C 1021.0 hPa 1017.0 hPa 4.9 mm          
22/12/2007 20.7C 13.6C 17.2C 1023.0 hPa 1023.0 hPa 0.4 mm          
23/12/2007 22.0C 12.8C 17.4C 1019.0 hPa 1016.0 hPa 0.0 mm          
24/12/2007 21.8C 13.9C 17.9C 1013.0 hPa 1012.0 hPa 0.4 mm          
25/12/2007 21.6C 16.4C 19.0C 1011.0 hPa 1009.0 hPa 8.1 mm          
26/12/2007 18.7C 13.3C 16.0C 1013.0 hPa 1009.0 hPa 4.0 mm          
27/12/2007 21.6C 11.2C 16.4C 1019.0 hPa 1017.0 hPa 0.9 mm          
28/12/2007 22.8C 14.0C 18.4C 1022.0 hPa 1020.0 hPa 0.4 mm          
29/12/2007 24.9C 15.5C 20.2C 1025.0 hPa 1024.0 hPa 0.0 mm          
30/12/2007 25.0C 13.1C 19.1C 1023.0 hPa 1021.0 hPa 0.0 mm          
Back to top 31/12/2007 20.7C 15.3C 18.0C 1019.0 hPa 1019.0 hPa 0.0 mm